Time;durP1;ratioP1;P1;durP2;ratioP2;P2;SDS_P1;SDS_P2;PMS_P1;PMS_P2;Temp;Humidity;BMP_temperature;BMP_pressure;BME280_temperature;BME280_humidity;BME280_pressure;Samples;Min_cycle;Max_cycle;Signal;HPM_P1;HPM_P2
2023/03/01 00:01:11;;;;;;;12.53;6.47;;;1.20;99.90;;;;;;5033539;28;20187;-41
2023/03/01 00:03:37;;;;;;;16.52;8.20;;;1.20;99.90;;;;;;5033403;28;20196;-42
2023/03/01 00:06:04;;;;;;;27.95;11.73;;;1.20;99.90;;;;;;5013576;28;20216;-41
2023/03/01 00:08:30;;;;;;;25.17;10.25;;;1.20;99.90;;;;;;5013795;28;20562;-41
2023/03/01 00:11:08;;;;;;;284.65;88.63;;;1.30;99.90;;;;;;5013921;28;20208;-42
2023/03/01 00:13:34;;;;;;;218.35;71.40;;;1.20;99.90;;;;;;5026306;28;20175;-41
2023/03/01 00:16:03;;;;;;;177.57;62.53;;;1.20;99.90;;;;;;5033391;28;20297;-41
2023/03/01 00:18:29;;;;;;;89.10;33.45;;;1.10;99.90;;;;;;5033252;28;20493;-42
2023/03/01 00:20:55;;;;;;;58.25;22.80;;;1.10;99.90;;;;;;5033525;28;20263;-41
2023/03/01 00:23:22;;;;;;;16.85;8.27;;;1.10;99.90;;;;;;5032321;28;20171;-42
2023/03/01 00:25:48;;;;;;;10.35;6.07;;;1.10;99.90;;;;;;5032051;28;20163;-42
2023/03/01 00:28:13;;;;;;;10.95;6.03;;;1.10;99.90;;;;;;5033096;28;20163;-41
2023/03/01 00:30:39;;;;;;;9.98;6.43;;;1.10;99.90;;;;;;5032978;28;20282;-41
2023/03/01 00:33:05;;;;;;;9.48;5.85;;;1.10;99.90;;;;;;5033057;28;20176;-43
2023/03/01 00:35:32;;;;;;;91.93;34.90;;;1.10;99.90;;;;;;5032545;28;20211;-42
2023/03/01 00:37:58;;;;;;;25.77;11.95;;;1.10;99.90;;;;;;5032933;28;20170;-49
2023/03/01 00:40:24;;;;;;;11.98;7.22;;;1.00;99.90;;;;;;5033309;28;20506;-48
2023/03/01 00:42:50;;;;;;;8.98;5.60;;;1.00;99.90;;;;;;5032893;28;20175;-49
2023/03/01 00:45:16;;;;;;;8.45;4.93;;;1.00;99.90;;;;;;5032756;28;20174;-50
2023/03/01 00:47:42;;;;;;;7.53;5.30;;;0.90;99.90;;;;;;5032779;28;20175;-49
2023/03/01 00:50:09;;;;;;;8.90;5.70;;;1.00;99.90;;;;;;5032663;28;20202;-49
2023/03/01 00:52:34;;;;;;;8.93;5.72;;;0.80;99.90;;;;;;5032537;28;20245;-48
2023/03/01 00:55:00;;;;;;;16.27;9.50;;;1.00;99.90;;;;;;5032592;28;20639;-49
2023/03/01 00:57:25;;;;;;;25.60;12.30;;;0.90;99.90;;;;;;5032950;28;20171;-49
2023/03/01 00:59:52;;;;;;;36.88;15.88;;;1.50;99.90;;;;;;5032886;28;20650;-49
2023/03/01 01:02:18;;;;;;;21.43;10.37;;;0.80;99.90;;;;;;5032625;28;20179;-49
2023/03/01 01:04:45;;;;;;;16.02;7.70;;;0.90;99.90;;;;;;5031886;28;20262;-48
2023/03/01 01:07:10;;;;;;;8.63;6.13;;;0.90;99.90;;;;;;5031512;28;20229;-49
2023/03/01 01:09:36;;;;;;;8.80;5.78;;;0.90;99.90;;;;;;5031729;28;20191;-47
2023/03/01 01:12:02;;;;;;;11.57;5.85;;;0.80;99.90;;;;;;5031903;28;20215;-48
2023/03/01 01:14:28;;;;;;;9.32;6.03;;;0.80;99.90;;;;;;5031684;28;20620;-49
2023/03/01 01:16:53;;;;;;;15.73;7.88;;;0.80;99.90;;;;;;5031834;28;20178;-49
2023/03/01 01:19:19;;;;;;;12.32;6.35;;;0.80;99.90;;;;;;5031476;28;20574;-45
2023/03/01 01:21:45;;;;;;;16.90;6.88;;;0.90;99.90;;;;;;5031567;28;20167;-49
2023/03/01 01:24:11;;;;;;;8.77;5.28;;;0.70;99.90;;;;;;5031563;28;20175;-46
2023/03/01 01:26:37;;;;;;;8.52;5.63;;;0.60;99.90;;;;;;5031375;28;20310;-48
2023/03/01 01:29:04;;;;;;;9.02;5.68;;;0.60;99.90;;;;;;5031475;28;20221;-48
2023/03/01 01:31:32;;;;;;;8.33;5.43;;;0.50;99.90;;;;;;5031109;28;20554;-49
2023/03/01 01:33:59;;;;;;;8.27;5.80;;;0.50;99.90;;;;;;5031481;28;20168;-45
2023/03/01 01:36:25;;;;;;;7.93;5.47;;;0.50;99.90;;;;;;5031423;28;20213;-49
2023/03/01 01:38:51;;;;;;;8.88;6.00;;;0.50;99.90;;;;;;5031668;28;20171;-47
2023/03/01 01:41:18;;;;;;;8.55;5.93;;;0.60;99.90;;;;;;5031212;28;20254;-48
2023/03/01 01:43:47;;;;;;;9.67;6.27;;;0.50;99.90;;;;;;5029673;28;20207;-47
2023/03/01 01:46:28;;;;;;;10.68;6.70;;;0.60;99.90;;;;;;5031293;28;20193;-49
2023/03/01 01:49:00;;;;;;;10.68;6.53;;;0.60;99.90;;;;;;5031477;28;20179;-42
2023/03/01 01:51:38;;;;;;;11.38;6.75;;;0.50;99.90;;;;;;5031381;28;20207;-42
2023/03/01 01:54:13;;;;;;;12.85;5.70;;;0.50;99.90;;;;;;5031355;28;20506;-41
2023/03/01 01:56:42;;;;;;;9.63;5.90;;;0.50;99.90;;;;;;5031164;28;20673;-41
2023/03/01 01:59:09;;;;;;;8.18;5.65;;;0.50;99.90;;;;;;5031137;28;20234;-41
2023/03/01 02:01:35;;;;;;;7.70;5.73;;;0.50;99.90;;;;;;5031081;28;20168;-42
2023/03/01 02:04:00;;;;;;;10.32;5.72;;;0.50;99.90;;;;;;5030760;28;20251;-42
2023/03/01 02:06:33;;;;;;;10.10;5.95;;;0.40;99.90;;;;;;5030985;28;20245;-41
2023/03/01 02:09:02;;;;;;;8.23;5.07;;;0.40;99.90;;;;;;5030973;28;20175;-41
2023/03/01 02:11:31;;;;;;;9.32;5.75;;;0.40;99.90;;;;;;5030839;28;20232;-42
2023/03/01 02:13:57;;;;;;;7.82;5.07;;;0.40;99.90;;;;;;5030916;28;20254;-42
2023/03/01 02:16:22;;;;;;;8.77;5.77;;;0.30;99.90;;;;;;5031557;28;20274;-41
2023/03/01 02:18:50;;;;;;;9.30;6.03;;;0.20;99.90;;;;;;5030920;28;20167;-41
2023/03/01 02:21:24;;;;;;;10.48;6.20;;;0.30;99.90;;;;;;5030810;28;20627;-43
2023/03/01 02:23:50;;;;;;;8.13;5.55;;;0.30;99.90;;;;;;5030887;28;20631;-42
2023/03/01 02:26:30;;;;;;;7.75;5.88;;;0.30;99.90;;;;;;5030793;28;20229;-42
2023/03/01 02:28:56;;;;;;;7.83;6.00;;;0.30;99.90;;;;;;5030654;28;20175;-41
2023/03/01 02:34:07;;;;;;;9.87;5.80;;;0.30;99.90;;;;;;5030508;28;20170;-42
2023/03/01 02:36:37;;;;;;;8.27;6.00;;;0.20;99.90;;;;;;5030533;28;20623;-42
2023/03/01 02:39:06;;;;;;;9.37;5.77;;;0.20;99.90;;;;;;5030727;28;20174;-42
2023/03/01 02:41:36;;;;;;;8.57;6.25;;;0.30;99.90;;;;;;5030695;28;20199;-42
2023/03/01 02:44:03;;;;;;;10.45;6.47;;;0.20;99.90;;;;;;5030570;28;20194;-41
2023/03/01 02:46:29;;;;;;;9.17;5.83;;;0.10;99.90;;;;;;5030128;28;20532;-41
2023/03/01 02:48:57;;;;;;;13.83;7.17;;;-0.10;99.90;;;;;;5033579;28;20171;-41
2023/03/01 02:51:52;;;;;;;9.85;6.25;;;0.00;99.90;;;;;;5034730;28;20199;-42
2023/03/01 02:54:26;;;;;;;10.00;6.13;;;-0.10;99.90;;;;;;5033800;28;20164;-42
2023/03/01 02:56:52;;;;;;;9.73;6.72;;;0.10;99.90;;;;;;5034027;28;20236;-42
2023/03/01 02:59:20;;;;;;;10.52;6.38;;;0.10;99.90;;;;;;5033796;28;20630;-42
2023/03/01 03:01:46;;;;;;;9.17;6.17;;;0.10;99.90;;;;;;5034418;28;20282;-42
2023/03/01 03:04:16;;;;;;;9.70;6.13;;;0.10;99.90;;;;;;5033895;28;20272;-41
2023/03/01 03:06:43;;;;;;;9.23;6.03;;;0.00;99.90;;;;;;5033972;28;20272;-42
2023/03/01 03:09:08;;;;;;;11.13;6.27;;;0.10;99.90;;;;;;5034168;28;20163;-41
2023/03/01 03:11:34;;;;;;;12.57;6.47;;;0.00;99.90;;;;;;5033919;28;20217;-42
2023/03/01 03:13:59;;;;;;;9.30;6.23;;;0.00;99.90;;;;;;5032453;28;20270;-41
2023/03/01 03:16:25;;;;;;;8.33;5.80;;;-0.10;99.90;;;;;;5034435;28;20512;-42
2023/03/01 03:18:50;;;;;;;11.30;6.47;;;-0.20;99.90;;;;;;5034459;28;20182;-41
2023/03/01 03:21:16;;;;;;;9.97;6.50;;;0.00;99.90;;;;;;5032703;28;20199;-41
2023/03/01 03:23:43;;;;;;;11.20;6.45;;;0.00;99.90;;;;;;5033848;28;20194;-43
2023/03/01 03:26:09;;;;;;;10.93;6.67;;;0.00;99.90;;;;;;5034036;28;20167;-42
2023/03/01 03:28:35;;;;;;;8.37;5.77;;;0.00;99.90;;;;;;5033957;28;20181;-42
2023/03/01 03:31:04;;;;;;;10.53;6.33;;;-0.20;99.90;;;;;;5033517;28;20203;-42
2023/03/01 03:33:30;;;;;;;8.70;5.90;;;-0.10;99.90;;;;;;5033638;28;20539;-41
2023/03/01 03:35:56;;;;;;;8.93;6.67;;;-0.20;99.90;;;;;;5033017;28;20195;-42
2023/03/01 03:38:22;;;;;;;9.10;6.50;;;-0.20;99.90;;;;;;5034011;28;20178;-42
2023/03/01 03:40:49;;;;;;;11.53;6.40;;;-0.30;99.90;;;;;;5033493;28;20176;-41
2023/03/01 03:43:22;;;;;;;9.47;6.03;;;-0.20;99.90;;;;;;5033454;28;20164;-43
2023/03/01 03:45:50;;;;;;;11.98;7.28;;;-0.20;99.90;;;;;;5033384;28;20163;-42
2023/03/01 03:48:16;;;;;;;10.57;6.63;;;-0.20;99.90;;;;;;5033657;28;20178;-42
2023/03/01 03:50:46;;;;;;;15.27;6.60;;;-0.20;99.90;;;;;;5033294;28;20194;-42
2023/03/01 03:53:12;;;;;;;8.85;6.35;;;-0.30;99.90;;;;;;5033344;28;20500;-41
2023/03/01 03:55:41;;;;;;;10.50;6.73;;;-0.20;99.90;;;;;;5033421;28;20182;-42
2023/03/01 03:58:09;;;;;;;8.97;6.10;;;-0.30;99.90;;;;;;5033235;28;20646;-44
2023/03/01 04:00:46;;;;;;;8.20;6.33;;;-0.50;99.90;;;;;;5033044;28;20167;-46
2023/03/01 04:03:14;;;;;;;10.27;6.60;;;-0.30;99.90;;;;;;5033102;28;20169;-43
2023/03/01 04:05:41;;;;;;;11.40;6.63;;;-0.40;99.90;;;;;;5032861;28;20223;-42
2023/03/01 04:08:07;;;;;;;13.23;6.83;;;-0.50;99.90;;;;;;5032857;28;20661;-41
2023/03/01 04:10:37;;;;;;;9.33;6.03;;;-0.50;99.90;;;;;;5032907;28;20225;-41
2023/03/01 04:13:03;;;;;;;11.47;7.13;;;-0.60;99.90;;;;;;5033073;28;20163;-42
2023/03/01 04:15:29;;;;;;;13.48;6.80;;;-0.50;99.90;;;;;;5033021;28;20186;-42
2023/03/01 04:17:55;;;;;;;11.48;6.85;;;-0.60;99.90;;;;;;5032822;28;20772;-47
2023/03/01 04:20:24;;;;;;;13.20;6.83;;;-0.50;99.90;;;;;;5033447;28;20319;-43
2023/03/01 04:23:00;;;;;;;10.20;6.67;;;-0.70;99.90;;;;;;5033084;28;20660;-43
2023/03/01 04:25:26;;;;;;;13.20;6.60;;;-0.60;99.90;;;;;;5032668;28;20166;-45
2023/03/01 04:27:52;;;;;;;11.50;7.10;;;-0.60;99.90;;;;;;5032933;28;20605;-42
2023/03/01 04:30:17;;;;;;;16.40;6.97;;;-0.60;99.90;;;;;;5032592;28;20281;-43
2023/03/01 04:32:43;;;;;;;11.63;6.95;;;-0.50;99.90;;;;;;5032405;28;20251;-46
2023/03/01 04:35:09;;;;;;;10.07;6.57;;;-0.50;99.90;;;;;;5032565;28;20198;-42
2023/03/01 04:37:34;;;;;;;16.33;7.27;;;-0.70;99.90;;;;;;5032106;28;20540;-42
2023/03/01 04:40:01;;;;;;;11.35;7.18;;;-0.60;99.90;;;;;;5032364;28;20205;-43
2023/03/01 04:42:26;;;;;;;11.57;7.13;;;-0.60;99.90;;;;;;5032430;28;20193;-42
2023/03/01 04:44:52;;;;;;;13.17;7.70;;;-0.70;99.90;;;;;;5032453;28;20236;-42
2023/03/01 04:47:18;;;;;;;12.77;6.70;;;-0.70;99.90;;;;;;5032370;28;20173;-43
2023/03/01 04:49:43;;;;;;;9.30;6.97;;;-0.70;99.90;;;;;;5032101;28;20174;-42
2023/03/01 04:52:09;;;;;;;14.10;7.13;;;-0.60;99.90;;;;;;5032167;28;20719;-42
2023/03/01 04:54:35;;;;;;;11.27;6.87;;;-0.70;99.90;;;;;;5032165;28;20167;-42
2023/03/01 04:57:02;;;;;;;14.53;7.23;;;-0.70;99.90;;;;;;5032118;28;20232;-42
2023/03/01 04:59:28;;;;;;;12.90;7.37;;;-0.70;99.90;;;;;;5032091;28;20174;-48
2023/03/01 05:01:55;;;;;;;12.53;6.70;;;-0.70;99.90;;;;;;5032336;28;20631;-44
2023/03/01 05:04:22;;;;;;;30.17;22.00;;;-0.70;99.90;;;;;;5031987;28;20246;-44
2023/03/01 05:06:47;;;;;;;11.40;8.75;;;-0.70;99.90;;;;;;5031615;28;20222;-48
2023/03/01 05:09:13;;;;;;;11.17;7.30;;;-0.70;99.90;;;;;;5031792;28;20173;-47
2023/03/01 05:11:39;;;;;;;12.33;7.03;;;-0.70;99.90;;;;;;5031176;28;20335;-43
2023/03/01 05:14:06;;;;;;;12.87;6.67;;;-0.70;99.90;;;;;;5031797;28;20167;-42
2023/03/01 05:16:32;;;;;;;10.97;7.33;;;-0.70;99.90;;;;;;5031751;28;20198;-42
2023/03/01 05:18:59;;;;;;;12.37;7.27;;;-0.80;99.90;;;;;;5031665;28;20166;-42
2023/03/01 05:21:25;;;;;;;16.60;7.23;;;-0.80;99.90;;;;;;5032356;28;20175;-42
2023/03/01 05:23:51;;;;;;;13.50;7.00;;;-0.80;99.90;;;;;;5031988;28;20176;-43
2023/03/01 05:26:19;;;;;;;11.73;6.87;;;-0.90;99.90;;;;;;5031569;28;20175;-42
2023/03/01 05:28:44;;;;;;;13.77;7.53;;;-0.80;99.90;;;;;;5031574;28;20259;-42
2023/03/01 05:31:10;;;;;;;14.60;7.60;;;-0.80;99.90;;;;;;5031442;28;20288;-41
2023/03/01 05:33:40;;;;;;;11.30;6.80;;;-0.80;99.90;;;;;;5031737;28;20511;-42
2023/03/01 05:36:10;;;;;;;14.90;7.50;;;-0.80;99.90;;;;;;5031135;28;20288;-42
2023/03/01 05:38:36;;;;;;;13.20;7.63;;;-0.80;99.90;;;;;;5031401;28;20185;-42
2023/03/01 05:41:02;;;;;;;13.50;7.43;;;-0.80;99.90;;;;;;5031176;28;20178;-42
2023/03/01 05:43:33;;;;;;;13.60;8.47;;;-0.80;99.90;;;;;;5031274;28;20515;-42
2023/03/01 05:45:59;;;;;;;13.95;7.85;;;-0.80;99.90;;;;;;5031398;28;20170;-43
2023/03/01 05:48:25;;;;;;;13.60;7.23;;;-0.90;99.90;;;;;;5031161;28;20222;-42
2023/03/01 05:50:51;;;;;;;14.53;8.87;;;-0.70;99.90;;;;;;5031570;28;20704;-42
2023/03/01 05:53:22;;;;;;;14.50;7.40;;;-0.90;99.90;;;;;;5031098;28;20174;-42
2023/03/01 05:55:49;;;;;;;12.57;7.40;;;-0.80;99.90;;;;;;5031100;28;20178;-42
2023/03/01 05:58:18;;;;;;;10.48;7.55;;;-0.80;99.90;;;;;;5031356;28;20182;-42
2023/03/01 06:00:45;;;;;;;12.73;7.23;;;-0.90;99.90;;;;;;5030983;28;20182;-44
2023/03/01 06:03:12;;;;;;;15.40;7.47;;;-1.00;99.90;;;;;;5030894;28;20167;-42
2023/03/01 06:05:39;;;;;;;17.50;7.77;;;-1.00;99.90;;;;;;5030493;28;20262;-43
2023/03/01 06:08:05;;;;;;;14.18;8.15;;;-1.00;99.90;;;;;;5030969;28;20201;-42
2023/03/01 06:10:31;;;;;;;12.83;7.80;;;-1.00;99.90;;;;;;5030810;28;20453;-41
2023/03/01 06:12:57;;;;;;;8.63;7.27;;;-1.00;99.90;;;;;;5030939;28;20572;-42
2023/03/01 06:15:23;;;;;;;14.03;7.67;;;-1.00;99.90;;;;;;5031487;28;20644;-43
2023/03/01 06:17:49;;;;;;;16.60;7.70;;;-1.00;99.90;;;;;;5029656;28;20178;-42
2023/03/01 06:20:20;;;;;;;11.87;7.27;;;-1.00;99.90;;;;;;5030962;28;20216;-45
2023/03/01 06:22:46;;;;;;;11.80;7.27;;;-1.00;99.90;;;;;;5033140;28;20173;-42
2023/03/01 06:25:14;;;;;;;12.77;7.23;;;-1.10;99.90;;;;;;5035101;28;20255;-42
2023/03/01 06:27:40;;;;;;;15.07;8.13;;;-1.10;99.90;;;;;;5035117;28;20178;-42
2023/03/01 06:30:07;;;;;;;12.07;7.67;;;-1.10;99.90;;;;;;5034712;28;20229;-42
2023/03/01 06:32:33;;;;;;;16.70;8.70;;;-1.10;99.90;;;;;;5034812;28;20198;-42
2023/03/01 06:34:58;;;;;;;12.87;8.03;;;-1.20;99.90;;;;;;5034666;28;20170;-43
2023/03/01 06:37:25;;;;;;;12.73;6.63;;;-1.00;99.90;;;;;;5034933;28;20183;-42
2023/03/01 06:39:51;;;;;;;12.13;7.27;;;-1.00;99.90;;;;;;5034996;28;20222;-42
2023/03/01 06:42:16;;;;;;;12.77;8.63;;;-1.00;99.90;;;;;;5034533;28;20170;-44
2023/03/01 06:44:42;;;;;;;16.70;8.07;;;-0.90;99.90;;;;;;5034619;28;20212;-47
2023/03/01 06:47:07;;;;;;;15.10;7.50;;;-0.90;99.90;;;;;;5034491;28;20278;-47
2023/03/01 06:49:33;;;;;;;13.90;8.02;;;-0.80;99.90;;;;;;5034424;28;20174;-42
2023/03/01 06:51:58;;;;;;;15.23;8.20;;;-0.90;99.90;;;;;;5034441;28;20210;-42
2023/03/01 06:54:24;;;;;;;13.55;8.27;;;-0.80;99.90;;;;;;5034407;28;20257;-42
2023/03/01 06:56:50;;;;;;;17.00;8.30;;;-0.80;99.90;;;;;;5034692;28;20531;-43
2023/03/01 06:59:16;;;;;;;11.80;8.07;;;-0.80;99.90;;;;;;5034220;28;20214;-42
2023/03/01 07:01:43;;;;;;;15.13;8.17;;;-0.70;99.90;;;;;;5034231;28;20263;-42
2023/03/01 07:04:09;;;;;;;11.67;8.10;;;-0.90;99.90;;;;;;5034186;28;20665;-42
2023/03/01 07:06:34;;;;;;;12.93;8.67;;;-0.80;99.90;;;;;;5034136;28;20218;-42
2023/03/01 07:09:00;;;;;;;10.80;7.53;;;-0.70;99.90;;;;;;5034143;28;20166;-44
2023/03/01 07:11:26;;;;;;;13.57;7.57;;;-0.70;99.90;;;;;;5033936;28;20649;-41
2023/03/01 07:13:51;;;;;;;13.53;8.27;;;-0.70;99.90;;;;;;5034565;28;20167;-46
2023/03/01 07:16:17;;;;;;;13.40;8.63;;;-0.50;99.90;;;;;;5033958;28;20269;-42
2023/03/01 07:18:43;;;;;;;17.03;8.20;;;-0.40;99.90;;;;;;5033897;28;20159;-42
2023/03/01 07:21:11;;;;;;;11.27;8.50;;;-0.30;99.90;;;;;;5033655;28;20179;-44
2023/03/01 07:23:37;;;;;;;16.30;9.63;;;-0.40;99.90;;;;;;5033970;28;20254;-42
2023/03/01 07:26:03;;;;;;;14.27;9.23;;;-0.30;99.90;;;;;;5033722;28;20246;-42
2023/03/01 07:28:28;;;;;;;14.27;8.70;;;-0.20;99.90;;;;;;5033633;28;20229;-42
2023/03/01 07:30:54;;;;;;;17.67;9.00;;;-0.20;99.90;;;;;;5033710;28;20209;-43
2023/03/01 07:33:20;;;;;;;13.43;9.17;;;0.00;99.90;;;;;;5033645;28;20222;-42
2023/03/01 07:35:46;;;;;;;17.98;9.55;;;0.10;99.90;;;;;;5033259;28;20172;-43
2023/03/01 07:38:12;;;;;;;13.70;9.18;;;0.20;99.90;;;;;;5033623;28;20196;-42
2023/03/01 07:40:37;;;;;;;15.87;9.43;;;0.30;99.90;;;;;;5033550;28;20190;-45
2023/03/01 07:43:03;;;;;;;14.38;9.40;;;0.30;99.90;;;;;;5033787;28;20176;-47
2023/03/01 07:45:29;;;;;;;16.35;9.20;;;0.40;99.90;;;;;;5030195;28;20183;-43
2023/03/01 07:47:55;;;;;;;16.27;9.38;;;0.60;99.90;;;;;;5031839;28;20175;-42
2023/03/01 07:50:21;;;;;;;12.90;9.13;;;0.70;99.90;;;;;;5032222;28;20199;-45
2023/03/01 07:52:49;;;;;;;18.35;9.68;;;0.80;99.90;;;;;;5031302;28;20254;-44
2023/03/01 07:55:15;;;;;;;13.13;9.00;;;0.90;99.90;;;;;;5032145;28;20178;-45
2023/03/01 07:57:40;;;;;;;19.65;9.77;;;0.90;99.90;;;;;;5031510;28;20182;-44
2023/03/01 08:00:07;;;;;;;16.05;9.75;;;0.90;99.90;;;;;;5031593;28;20171;-41
2023/03/01 08:02:33;;;;;;;15.85;10.40;;;1.00;99.90;;;;;;5031803;28;20254;-41
2023/03/01 08:04:58;;;;;;;17.88;9.43;;;1.10;99.90;;;;;;5031625;28;20319;-38
2023/03/01 08:07:24;;;;;;;13.95;10.15;;;1.10;99.90;;;;;;5031617;28;20206;-41
2023/03/01 08:09:50;;;;;;;13.70;8.93;;;1.20;99.90;;;;;;5032001;28;20210;-43
2023/03/01 08:12:18;;;;;;;18.27;9.77;;;1.30;99.90;;;;;;5031177;28;20242;-41
2023/03/01 08:14:44;;;;;;;14.95;9.70;;;1.30;99.90;;;;;;5031502;28;20198;-42
2023/03/01 08:17:09;;;;;;;15.40;9.10;;;1.40;99.90;;;;;;5031645;28;20211;-42
2023/03/01 08:19:35;;;;;;;13.57;9.45;;;1.60;99.90;;;;;;5031786;28;20616;-43
2023/03/01 08:22:03;;;;;;;14.25;9.52;;;1.70;99.90;;;;;;5032123;28;20232;-41
2023/03/01 08:24:29;;;;;;;17.67;11.32;;;1.90;99.90;;;;;;5031217;28;20406;-42
2023/03/01 08:26:55;;;;;;;15.95;10.13;;;2.00;99.90;;;;;;5030159;28;20179;-43
2023/03/01 08:29:21;;;;;;;13.13;9.57;;;2.10;99.90;;;;;;5031724;28;20297;-44
2023/03/01 08:31:47;;;;;;;16.58;9.68;;;2.00;99.90;;;;;;5030922;28;20211;-45
2023/03/01 08:34:15;;;;;;;17.45;8.60;;;2.20;99.90;;;;;;5031159;28;20175;-45
2023/03/01 08:36:44;;;;;;;17.77;9.48;;;2.30;99.90;;;;;;5031207;28;20173;-42
2023/03/01 08:39:12;;;;;;;14.75;9.02;;;2.50;99.90;;;;;;5031343;28;20172;-41
2023/03/01 08:41:38;;;;;;;12.57;8.98;;;2.40;99.90;;;;;;5031589;28;20595;-43
2023/03/01 08:44:04;;;;;;;14.65;9.15;;;2.50;99.90;;;;;;5031495;28;20262;-43
2023/03/01 08:46:38;;;;;;;14.82;8.18;;;2.70;99.90;;;;;;5030304;28;20213;-44
2023/03/01 08:49:05;;;;;;;13.32;9.75;;;2.60;99.90;;;;;;5031187;28;20330;-42
2023/03/01 08:51:36;;;;;;;14.98;9.20;;;2.70;99.90;;;;;;5031134;28;20217;-42
2023/03/01 08:54:05;;;;;;;14.30;8.68;;;2.90;99.90;;;;;;5031178;28;20194;-43
2023/03/01 08:56:31;;;;;;;12.30;8.80;;;2.80;99.90;;;;;;5031152;28;20171;-42
2023/03/01 08:58:57;;;;;;;13.35;9.30;;;2.80;99.90;;;;;;5029293;28;20725;-43
2023/03/01 09:01:23;;;;;;;11.75;8.38;;;2.90;99.90;;;;;;5030750;28;20221;-43
2023/03/01 09:03:48;;;;;;;13.98;9.65;;;2.90;99.90;;;;;;5030296;28;20167;-41
2023/03/01 09:06:24;;;;;;;12.32;7.18;;;2.80;99.90;;;;;;5067047;28;20973;-41
2023/03/01 09:08:50;;;;;;;15.52;9.05;;;3.00;99.90;;;;;;5067572;28;20173;-41
2023/03/01 09:11:20;;;;;;;12.10;9.02;;;3.20;99.90;;;;;;5066737;28;20165;-42
2023/03/01 09:13:48;;;;;;;13.38;9.07;;;3.30;99.90;;;;;;5066613;28;20209;-42
2023/03/01 09:16:16;;;;;;;14.15;9.43;;;3.30;99.90;;;;;;5066882;28;20180;-41
2023/03/01 09:18:43;;;;;;;16.58;11.90;;;3.60;99.90;;;;;;5066931;28;20174;-41
2023/03/01 09:21:13;;;;;;;13.95;9.88;;;3.70;99.90;;;;;;5065934;28;20650;-42
2023/03/01 09:23:46;;;;;;;15.57;9.68;;;3.70;99.90;;;;;;5066539;28;20174;-41
2023/03/01 09:26:19;;;;;;;14.73;9.20;;;3.90;99.90;;;;;;5066689;28;20197;-41
2023/03/01 09:28:45;;;;;;;18.65;9.30;;;4.00;99.90;;;;;;5066859;28;20237;-41
2023/03/01 09:31:14;;;;;;;12.90;9.15;;;4.10;99.90;;;;;;5065925;28;20174;-41
2023/03/01 09:33:41;;;;;;;15.30;9.52;;;4.30;99.90;;;;;;5066115;28;20201;-41
2023/03/01 09:36:13;;;;;;;16.27;9.25;;;4.30;99.90;;;;;;5066391;28;20181;-41
2023/03/01 09:38:38;;;;;;;13.88;9.25;;;4.40;99.90;;;;;;5066443;28;20275;-41
2023/03/01 09:41:30;;;;;;;15.55;9.57;;;4.50;99.90;;;;;;5066201;28;20718;-41
2023/03/01 09:44:28;;;;;;;15.45;10.00;;;4.60;99.90;;;;;;5065795;28;20622;-44
2023/03/01 09:46:53;;;;;;;13.25;8.48;;;4.70;99.90;;;;;;5065970;28;20186;-44
2023/03/01 09:49:23;;;;;;;18.35;10.05;;;4.70;99.90;;;;;;5065988;28;20166;-44
2023/03/01 09:52:03;;;;;;;12.02;9.38;;;4.80;99.90;;;;;;5065738;28;20198;-41
2023/03/01 09:54:28;;;;;;;12.40;8.00;;;4.90;99.90;;;;;;5069804;28;20645;-41
2023/03/01 09:57:19;;;;;;;12.52;9.02;;;4.90;99.90;;;;;;5066091;28;20253;-41
2023/03/01 10:00:04;;;;;;;12.18;7.80;;;5.00;99.90;;;;;;5065324;28;20180;-40
2023/03/01 10:02:32;;;;;;;15.02;8.75;;;5.00;99.90;;;;;;5065813;28;20642;-40
2023/03/01 10:05:13;;;;;;;14.18;9.15;;;4.90;99.90;;;;;;5065118;28;20226;-41
2023/03/01 10:07:57;;;;;;;13.93;9.00;;;5.10;99.90;;;;;;5065378;28;20162;-40
2023/03/01 10:10:38;;;;;;;27.58;15.07;;;5.20;99.90;;;;;;5065947;28;20652;-41
2023/03/01 10:13:23;;;;;;;18.05;10.70;;;5.30;99.90;;;;;;5065375;28;20382;-43
2023/03/01 10:15:59;;;;;;;45.15;24.85;;;5.50;99.90;;;;;;5062542;28;20657;-42
2023/03/01 10:18:28;;;;;;;12.10;8.65;;;5.60;99.90;;;;;;5052084;28;20194;-41
2023/03/01 10:21:03;;;;;;;25.02;11.13;;;5.60;99.90;;;;;;5052592;28;20529;-41
2023/03/01 10:23:32;;;;;;;20.77;12.90;;;5.70;99.90;;;;;;5052041;28;20261;-41
2023/03/01 10:26:23;;;;;;;43.42;28.48;;;5.60;99.90;;;;;;5051913;28;20281;-41
2023/03/01 10:28:58;;;;;;;17.70;10.95;;;5.70;99.90;;;;;;5051803;28;20163;-41
2023/03/01 10:31:36;;;;;;;12.70;7.63;;;5.90;99.90;;;;;;5052333;28;20174;-41
2023/03/01 10:34:04;;;;;;;19.17;9.85;;;6.10;99.90;;;;;;5051865;28;20175;-42
2023/03/01 10:36:33;;;;;;;15.82;8.95;;;6.00;99.90;;;;;;5051907;28;20206;-41
2023/03/01 10:38:59;;;;;;;31.95;16.77;;;5.90;99.90;;;;;;5051788;28;20404;-41
2023/03/01 10:41:27;;;;;;;19.08;11.32;;;5.90;99.90;;;;;;5051624;28;20177;-41
2023/03/01 10:43:57;;;;;;;19.00;10.55;;;5.90;99.90;;;;;;5052439;28;20619;-41
2023/03/01 10:46:26;;;;;;;11.85;7.60;;;6.10;99.90;;;;;;5052110;28;20248;-41
2023/03/01 10:49:18;;;;;;;20.17;12.02;;;6.20;99.90;;;;;;5049981;28;20174;-41
2023/03/01 10:51:46;;;;;;;26.52;14.18;;;6.20;99.90;;;;;;5051514;28;20255;-41
2023/03/01 10:54:22;;;;;;;18.02;12.48;;;6.10;99.90;;;;;;5051289;28;20201;-41
2023/03/01 10:56:50;;;;;;;14.98;8.43;;;6.20;99.90;;;;;;5051447;28;20155;-43
2023/03/01 10:59:36;;;;;;;25.10;14.38;;;6.40;99.90;;;;;;5051377;28;20167;-44
2023/03/01 11:02:13;;;;;;;12.65;8.80;;;6.60;99.90;;;;;;5051328;28;20206;-45
2023/03/01 11:04:39;;;;;;;16.38;9.30;;;6.60;99.90;;;;;;5051172;28;20226;-42
2023/03/01 11:07:04;;;;;;;14.05;7.88;;;6.60;99.90;;;;;;5051484;28;20163;-43
2023/03/01 11:09:39;;;;;;;15.63;9.23;;;6.60;99.90;;;;;;5051255;28;20220;-42
2023/03/01 11:12:16;;;;;;;25.08;14.07;;;6.50;99.90;;;;;;5051239;28;20241;-44
2023/03/01 11:14:54;;;;;;;21.33;13.70;;;6.50;99.90;;;;;;5051258;28;20661;-44
2023/03/01 11:17:32;;;;;;;12.38;7.57;;;6.70;99.90;;;;;;5051805;28;20182;-44
2023/03/01 11:20:23;;;;;;;9.60;6.93;;;6.80;99.90;;;;;;5051212;28;20162;-41
2023/03/01 11:22:59;;;;;;;20.30;12.73;;;6.90;99.50;;;;;;5051488;28;20202;-41
2023/03/01 11:25:35;;;;;;;15.35;8.32;;;7.00;98.70;;;;;;5050435;28;20339;-41
2023/03/01 11:28:02;;;;;;;13.32;7.70;;;7.00;99.10;;;;;;5050007;28;20169;-43
2023/03/01 11:30:38;;;;;;;15.98;10.07;;;7.10;99.10;;;;;;5051184;28;20175;-42
2023/03/01 11:33:28;;;;;;;17.08;9.73;;;7.20;96.70;;;;;;5050746;28;20181;-41
2023/03/01 11:36:26;;;;;;;8.77;7.18;;;7.30;97.00;;;;;;5051061;28;20166;-41
2023/03/01 11:38:53;;;;;;;9.40;6.45;;;7.00;96.80;;;;;;5047935;28;20734;-41
2023/03/01 11:41:23;;;;;;;23.27;12.55;;;7.10;96.80;;;;;;5050455;28;20173;-41
2023/03/01 11:44:03;;;;;;;13.82;8.90;;;7.10;95.20;;;;;;5051107;28;20530;-41
2023/03/01 11:46:31;;;;;;;11.52;8.38;;;7.30;95.20;;;;;;5050617;28;20187;-42
2023/03/01 11:49:18;;;;;;;12.10;7.53;;;7.50;94.80;;;;;;5050537;28;20167;-44
2023/03/01 11:51:53;;;;;;;11.20;7.60;;;7.50;95.50;;;;;;5050587;28;21121;-44
2023/03/01 11:54:46;;;;;;;13.98;8.80;;;7.50;95.40;;;;;;5050203;28;20592;-44
2023/03/01 11:57:20;;;;;;;10.20;7.20;;;7.70;94.60;;;;;;5050347;28;20183;-43
2023/03/01 11:59:59;;;;;;;11.90;6.75;;;7.50;94.70;;;;;;5050570;28;20166;-43
2023/03/01 12:02:46;;;;;;;8.85;6.32;;;7.70;94.60;;;;;;5050098;28;20174;-42
2023/03/01 12:05:25;;;;;;;17.75;9.18;;;7.60;93.00;;;;;;5050053;28;20629;-41
2023/03/01 12:08:09;;;;;;;8.30;6.55;;;7.70;93.20;;;;;;5050709;28;20158;-41
2023/03/01 12:10:45;;;;;;;10.45;7.88;;;7.70;93.50;;;;;;5050083;28;20159;-41
2023/03/01 12:13:41;;;;;;;13.07;8.38;;;8.00;93.80;;;;;;5049926;28;20162;-41
2023/03/01 12:16:34;;;;;;;10.75;7.88;;;7.80;94.20;;;;;;5050286;28;20170;-41
2023/03/01 12:19:17;;;;;;;11.30;8.32;;;7.80;94.40;;;;;;5049998;28;20228;-41
2023/03/01 12:22:02;;;;;;;12.95;8.23;;;7.80;93.00;;;;;;5049936;28;20257;-41
2023/03/01 12:24:48;;;;;;;13.43;7.70;;;7.80;93.70;;;;;;5049677;28;20217;-41
2023/03/01 12:27:39;;;;;;;10.65;7.63;;;8.00;94.20;;;;;;5049725;28;20560;-44
2023/03/01 12:30:23;;;;;;;10.43;7.63;;;8.10;93.50;;;;;;5048426;28;20255;-47
2023/03/01 12:33:16;;;;;;;11.75;7.45;;;8.20;93.70;;;;;;5050126;28;20170;-48
2023/03/01 12:36:14;;;;;;;12.35;8.65;;;7.90;93.70;;;;;;5049704;28;20171;-42
2023/03/01 12:38:50;;;;;;;8.55;5.82;;;8.10;93.80;;;;;;5049635;28;20258;-41
2023/03/01 12:42:01;;;;;;;9.85;5.93;;;7.90;92.70;;;;;;5049741;28;20201;-42
2023/03/01 12:44:53;;;;;;;11.18;6.97;;;7.70;93.30;;;;;;5049660;28;20198;-42
2023/03/01 12:47:49;;;;;;;9.10;7.63;;;8.10;94.00;;;;;;5048652;28;20712;-43
2023/03/01 12:50:29;;;;;;;9.98;7.13;;;8.50;93.40;;;;;;5048304;28;20179;-43
2023/03/01 12:52:58;;;;;;;10.15;6.55;;;7.80;92.90;;;;;;5049358;28;20155;-43
2023/03/01 12:55:27;;;;;;;12.15;7.60;;;7.90;91.70;;;;;;5049680;28;20179;-43
2023/03/01 12:58:32;;;;;;;10.23;6.28;;;8.00;92.40;;;;;;5050240;28;20175;-43
2023/03/01 13:01:16;;;;;;;10.10;6.97;;;8.00;92.60;;;;;;5049329;28;20208;-41